Address 0x5e12ae5447bcb678f9c395ce3a5569f4f2505152 9

Txn Hash Method
Block
From
To
Value [Txn Fee]
0x3e0aee8116ce0f3e9a5c7669bb3bc26e511a5c5c77d127370c985dd02f43a5210x6103c06054945272022-11-10 9:31:0083 days 10 hrs ago0x5e12ae5447bcb678f9c395ce3a5569f4f2505152OUT Contract Creation0 CRO9.7578297184320
0x55334beccd1bb0814f02a1d97201b476097a5a163c327a625af92b85ee8435a20xb08aabca52462592022-10-25 2:07:3099 days 17 hrs ago0x5e12ae5447bcb678f9c395ce3a5569f4f2505152OUT 0x8f3ac4b45f38cad16d9e3838670e0e26e5c256550 CRO3.732058545236 4,892.084235383
0x3dd674936cc0755d9474411014a90dc82c56ddba95a39bf422841a175c56db170xb08aabca52438352022-10-24 22:17:3999 days 21 hrs ago0x5e12ae5447bcb678f9c395ce3a5569f4f2505152OUT 0x8f3ac4b45f38cad16d9e3838670e0e26e5c256550 CRO0.205770668123 4,892.196289292
0xf3534c164af6b7e5abf661603e7f60ae6b54774a3f7cbfd3938096256dd7d42e0xb08aabca52431382022-10-24 21:11:3299 days 22 hrs ago0x5e12ae5447bcb678f9c395ce3a5569f4f2505152OUT 0x8f3ac4b45f38cad16d9e3838670e0e26e5c256550 CRO0.194925955706 4,892.228584148
0x49bae25bcf021f59a956e3e0999d319a74696b5eac33ee24b8f17bce9e3876750xb08aabca52428442022-10-24 20:43:4399 days 23 hrs ago0x5e12ae5447bcb678f9c395ce3a5569f4f2505152OUT 0x8f3ac4b45f38cad16d9e3838670e0e26e5c256550 CRO0.195572273719 4,892.242188293
0x1db49a5dd0c0060f0821a5097b96d8c2aa10c7764ab3aec594c53a37d2dfb95a0xb08aabca52428422022-10-24 20:43:3299 days 23 hrs ago0x5e12ae5447bcb678f9c395ce3a5569f4f2505152OUT 0x8f3ac4b45f38cad16d9e3838670e0e26e5c256550 CRO0.205601373916 4,892.242276606
0xbdd0f74a6a0520a52a37fbb1664854b191f5db9c6d71b7e12439e35ffab505df0xb08aabca52420082022-10-24 19:24:26100 days 27 mins ago0x5e12ae5447bcb678f9c395ce3a5569f4f2505152OUT 0x8f3ac4b45f38cad16d9e3838670e0e26e5c256550 CRO0.206067755862 4,892.280711823
0x02e968ad05a2368ff90d8c99b5c5afe0b95af8b22e715e0f5399bc03f0d20f4d0xb08aabca52419352022-10-24 19:17:30100 days 34 mins ago0x5e12ae5447bcb678f9c395ce3a5569f4f2505152OUT 0x8f3ac4b45f38cad16d9e3838670e0e26e5c256550 CRO0.216620553289 4,892.284052786
0x790d16576edd02c9a48886a13a7742d855140d1bd85c59b130ec17cdd0249d7e0xb08aabca52418502022-10-24 19:09:28100 days 42 mins ago0x5e12ae5447bcb678f9c395ce3a5569f4f2505152OUT 0x8f3ac4b45f38cad16d9e3838670e0e26e5c256550 CRO0.216674541587 4,892.287962869
0x49d00a9c62c86ff7f639911397dbee78f5dd0c10d406349ef5f3996e3049748d0xb08aabca52415712022-10-24 18:43:01100 days 1 hr ago0x5e12ae5447bcb678f9c395ce3a5569f4f2505152OUT 0x8f3ac4b45f38cad16d9e3838670e0e26e5c256550 CRO3.339034470537 4,892.300852939
0x6f63f5eb358fcff8e39f84e284e4ca2326157d31ce1747a3e0d42f2dcad4122e0xb08aabca52412722022-10-24 18:14:39100 days 1 hr ago0x5e12ae5447bcb678f9c395ce3a5569f4f2505152OUT 0x8f3ac4b45f38cad16d9e3838670e0e26e5c256550 CRO0.205423400077 4,892.314655681
0x89b98392b8ff82591c1e5254656756f0e5ef8191d3694e0af5afb7932a8aea9d0xb08aabca52405062022-10-24 17:02:06100 days 2 hrs ago0x5e12ae5447bcb678f9c395ce3a5569f4f2505152OUT 0x8f3ac4b45f38cad16d9e3838670e0e26e5c256550 CRO0.205948362164 4,892.349918399
0xb531b8cafaa34bd4b29493ef0deb06e3f3c6c0509bf475c821c52f95a38e99880xb08aabca52405032022-10-24 17:01:49100 days 2 hrs ago0x5e12ae5447bcb678f9c395ce3a5569f4f2505152OUT 0x8f3ac4b45f38cad16d9e3838670e0e26e5c256550 CRO0.216095101868 4,892.35005363
0x150a60d9bf3d4cfdd6a303d4cb5861e96caeb06fb69d1ff244897bc5a64269510xb08aabca52398692022-10-24 16:01:45100 days 3 hrs ago0x5e12ae5447bcb678f9c395ce3a5569f4f2505152OUT 0x8f3ac4b45f38cad16d9e3838670e0e26e5c256550 CRO0.204550377661 4,892.379279161
0xdad3c22e402ccf5dd5b43010f419e278cc9fc1a562c3aba40502797866f76eab0xb08aabca52393892022-10-24 15:16:19100 days 4 hrs ago0x5e12ae5447bcb678f9c395ce3a5569f4f2505152OUT 0x8f3ac4b45f38cad16d9e3838670e0e26e5c256550 CRO0.194874130387 4,892.401345347
0x4e9f45e1b581e9ee19d92057b7d1174b092ea34de391db9cc76d1d63f54e04000xb08aabca52391422022-10-24 14:52:52100 days 4 hrs ago0x5e12ae5447bcb678f9c395ce3a5569f4f2505152OUT 0x8f3ac4b45f38cad16d9e3838670e0e26e5c256550 CRO2.672299408372 4,892.412682181
0xb779141e5782eb86450cdd9de981e6078eec715aaa9fe105ebca80313930e2260xb08aabca52391202022-10-24 14:50:47100 days 5 hrs ago0x5e12ae5447bcb678f9c395ce3a5569f4f2505152OUT 0x8f3ac4b45f38cad16d9e3838670e0e26e5c256550 CRO1.482489416442 4,892.413706258
0x284eb1f26467715b5ab307ad36b2c27990c0bb9d3aabe66d255c1b3d07283f400xb08aabca52390052022-10-24 14:39:52100 days 5 hrs ago0x5e12ae5447bcb678f9c395ce3a5569f4f2505152OUT 0x8f3ac4b45f38cad16d9e3838670e0e26e5c256550 CRO0.21639658463 4,892.418996427
0x9feb9cad1aaaf97aeb1c43120d3c14410ed76d955122647d5ea4b21577e2cec00xb08aabca52387712022-10-24 14:17:39100 days 5 hrs ago0x5e12ae5447bcb678f9c395ce3a5569f4f2505152OUT 0x8f3ac4b45f38cad16d9e3838670e0e26e5c256550 CRO2.965648949927 4,892.429611327
0x46acf557c571476e8d57a505efb138297ad0c463b74a07eebd85790fb3b92f060xb08aabca52384702022-10-24 13:49:07100 days 6 hrs ago0x5e12ae5447bcb678f9c395ce3a5569f4f2505152OUT 0x8f3ac4b45f38cad16d9e3838670e0e26e5c256550 CRO0.206211601878 4,892.443518901
0x8e7ee8bdb6dba37266afb13852e3700a067ec30c1ca6a74b865ab1705a99e4a20xb08aabca52367712022-10-24 11:08:12100 days 8 hrs ago0x5e12ae5447bcb678f9c395ce3a5569f4f2505152OUT 0x8f3ac4b45f38cad16d9e3838670e0e26e5c256550 CRO0.216513653099 4,892.521650015
0x1c3d741dbb59a18d1b79f931d2938de5ddcc0ccaad887ceac0c806f0d86ee6bc0xb08aabca52360362022-10-24 9:58:45100 days 9 hrs ago0x5e12ae5447bcb678f9c395ce3a5569f4f2505152OUT 0x8f3ac4b45f38cad16d9e3838670e0e26e5c256550 CRO0.225894194544 4,892.555815213
0x0c069b7b79f91310d68dd868847f3203dd019708e61b0443094183b5b04de3bc0xb08aabca52355722022-10-24 9:14:50100 days 10 hrs ago0x5e12ae5447bcb678f9c395ce3a5569f4f2505152OUT 0x8f3ac4b45f38cad16d9e3838670e0e26e5c256550 CRO2.040102078199 4,892.577511577
0x534e510cb25dd052fece201521c6ce2b82c8c10fa5f38bc12e1aa044f46fb5930xb08aabca52348272022-10-24 8:04:20100 days 11 hrs ago0x5e12ae5447bcb678f9c395ce3a5569f4f2505152OUT 0x8f3ac4b45f38cad16d9e3838670e0e26e5c256550 CRO0.195004828703 4,892.61180478
0x9b78bac0e1e1fe17dc9c023526731720e1e9f4ec951f1a68c4001125bf6921d10xb08aabca52345792022-10-24 7:40:52100 days 12 hrs ago0x5e12ae5447bcb678f9c395ce3a5569f4f2505152OUT 0x8f3ac4b45f38cad16d9e3838670e0e26e5c256550 CRO0.216342017475 4,892.623308967
[ Download CSV Export 
Parent Txn Hash Block From To Value
Loading

Contract Name:
0

Compiler Version
0

Optimization Enabled:
0

Other Settings:
-NA-
Block Transaction Gas Used Reward
Age Block Fee Address BC Fee Address Voting Power Jailed Incoming
Block Uncle Number Difficulty Gas Used Reward
Loading
Make sure to use the "Vote Down" button for any spammy posts, and the "Vote Up" for interesting conversations.